sensor_id;sensor_type;location;lat;lon;timestamp;pressure;altitude;pressure_sealevel;temperature;humidity
69842;BME280;57138;51.326;-0.068;2023-07-13T00:00:17;99674.75;;;15.02;78.35
69842;BME280;57138;51.326;-0.068;2023-07-13T00:02:43;99687.13;;;15.03;78.62
69842;BME280;57138;51.326;-0.068;2023-07-13T00:05:09;99665.44;;;14.86;78.72
69842;BME280;57138;51.326;-0.068;2023-07-13T00:07:35;99670.59;;;14.88;78.82
69842;BME280;57138;51.326;-0.068;2023-07-13T00:10:02;99697.19;;;14.96;78.79
69842;BME280;57138;51.326;-0.068;2023-07-13T00:12:33;99685.22;;;14.92;78.37
69842;BME280;57138;51.326;-0.068;2023-07-13T00:15:02;99681.13;;;14.89;78.31
69842;BME280;57138;51.326;-0.068;2023-07-13T00:17:28;99684.50;;;14.85;78.61
69842;BME280;57138;51.326;-0.068;2023-07-13T00:19:55;99683.47;;;14.86;79.05
69842;BME280;57138;51.326;-0.068;2023-07-13T00:22:21;99670.22;;;14.72;78.82
69842;BME280;57138;51.326;-0.068;2023-07-13T00:24:47;99672.06;;;14.72;78.85
69842;BME280;57138;51.326;-0.068;2023-07-13T00:27:12;99675.38;;;14.74;78.86
69842;BME280;57138;51.326;-0.068;2023-07-13T00:29:38;99679.44;;;14.77;78.65
69842;BME280;57138;51.326;-0.068;2023-07-13T00:32:04;99689.63;;;14.74;79.01
69842;BME280;57138;51.326;-0.068;2023-07-13T00:34:30;99669.56;;;14.59;78.94
69842;BME280;57138;51.326;-0.068;2023-07-13T00:36:56;99672.03;;;14.60;78.68
69842;BME280;57138;51.326;-0.068;2023-07-13T00:39:21;99676.34;;;14.61;78.72
69842;BME280;57138;51.326;-0.068;2023-07-13T00:41:48;99688.09;;;14.67;78.93
69842;BME280;57138;51.326;-0.068;2023-07-13T00:44:14;99669.63;;;14.52;78.59
69842;BME280;57138;51.326;-0.068;2023-07-13T00:46:40;99685.50;;;14.60;79.30
69842;BME280;57138;51.326;-0.068;2023-07-13T00:49:08;99662.34;;;14.41;79.07
69842;BME280;57138;51.326;-0.068;2023-07-13T00:52:04;99680.38;;;14.52;79.77
69842;BME280;57138;51.326;-0.068;2023-07-13T00:54:36;99666.69;;;14.42;79.77
69842;BME280;57138;51.326;-0.068;2023-07-13T00:57:06;99678.59;;;14.46;79.98
69842;BME280;57138;51.326;-0.068;2023-07-13T00:59:34;99680.13;;;14.42;79.89
69842;BME280;57138;51.326;-0.068;2023-07-13T01:02:02;99663.69;;;14.31;80.18
69842;BME280;57138;51.326;-0.068;2023-07-13T01:04:27;99685.50;;;14.42;80.29
69842;BME280;57138;51.326;-0.068;2023-07-13T01:06:53;99684.66;;;14.41;80.04
69842;BME280;57138;51.326;-0.068;2023-07-13T01:09:19;99678.19;;;14.30;79.87
69842;BME280;57138;51.326;-0.068;2023-07-13T01:11:46;99675.47;;;14.30;79.86
69842;BME280;57138;51.326;-0.068;2023-07-13T01:14:12;99677.00;;;14.26;79.90
69842;BME280;57138;51.326;-0.068;2023-07-13T01:16:38;99676.25;;;14.19;79.90
69842;BME280;57138;51.326;-0.068;2023-07-13T01:19:33;99666.56;;;14.18;79.92
69842;BME280;57138;51.326;-0.068;2023-07-13T01:24:37;99672.69;;;14.07;79.95
69842;BME280;57138;51.326;-0.068;2023-07-13T01:27:03;99688.97;;;14.12;80.23
69842;BME280;57138;51.326;-0.068;2023-07-13T01:29:31;99666.81;;;13.98;80.34
69842;BME280;57138;51.326;-0.068;2023-07-13T01:31:57;99684.63;;;14.11;80.01
69842;BME280;57138;51.326;-0.068;2023-07-13T01:34:23;99688.22;;;14.05;80.01
69842;BME280;57138;51.326;-0.068;2023-07-13T01:36:48;99694.63;;;14.03;80.36
69842;BME280;57138;51.326;-0.068;2023-07-13T01:39:13;99690.53;;;14.01;79.89
69842;BME280;57138;51.326;-0.068;2023-07-13T01:41:40;99693.44;;;13.99;80.14
69842;BME280;57138;51.326;-0.068;2023-07-13T01:44:06;99684.03;;;13.90;80.24
69842;BME280;57138;51.326;-0.068;2023-07-13T01:46:31;99664.91;;;13.80;80.33
69842;BME280;57138;51.326;-0.068;2023-07-13T01:48:57;99674.41;;;13.82;79.85
69842;BME280;57138;51.326;-0.068;2023-07-13T01:51:24;99687.19;;;13.87;80.15
69842;BME280;57138;51.326;-0.068;2023-07-13T01:53:49;99686.78;;;13.83;80.17
69842;BME280;57138;51.326;-0.068;2023-07-13T01:56:15;99681.25;;;13.78;79.74
69842;BME280;57138;51.326;-0.068;2023-07-13T01:58:40;99681.63;;;13.82;79.57
69842;BME280;57138;51.326;-0.068;2023-07-13T02:01:05;99672.63;;;13.76;79.54
69842;BME280;57138;51.326;-0.068;2023-07-13T02:03:31;99685.38;;;13.81;79.65
69842;BME280;57138;51.326;-0.068;2023-07-13T02:05:56;99683.94;;;13.78;80.02
69842;BME280;57138;51.326;-0.068;2023-07-13T02:08:22;99675.88;;;13.78;79.91
69842;BME280;57138;51.326;-0.068;2023-07-13T02:10:47;99679.25;;;13.74;79.87
69842;BME280;57138;51.326;-0.068;2023-07-13T02:13:13;99684.63;;;13.74;79.72
69842;BME280;57138;51.326;-0.068;2023-07-13T02:15:39;99682.38;;;13.71;80.16
69842;BME280;57138;51.326;-0.068;2023-07-13T02:18:07;99686.09;;;13.70;80.41
69842;BME280;57138;51.326;-0.068;2023-07-13T02:20:33;99662.88;;;13.57;80.13
69842;BME280;57138;51.326;-0.068;2023-07-13T02:22:58;99666.63;;;13.56;80.36
69842;BME280;57138;51.326;-0.068;2023-07-13T02:25:24;99672.38;;;13.59;80.41
69842;BME280;57138;51.326;-0.068;2023-07-13T02:27:50;99662.94;;;13.50;80.10
69842;BME280;57138;51.326;-0.068;2023-07-13T02:30:16;99677.75;;;13.59;80.15
69842;BME280;57138;51.326;-0.068;2023-07-13T02:32:41;99676.09;;;13.58;80.78
69842;BME280;57138;51.326;-0.068;2023-07-13T02:35:08;99650.25;;;13.39;80.59
69842;BME280;57138;51.326;-0.068;2023-07-13T02:37:34;99671.22;;;13.48;81.14
69842;BME280;57138;51.326;-0.068;2023-07-13T02:39:59;99661.00;;;13.39;81.36
69842;BME280;57138;51.326;-0.068;2023-07-13T02:42:25;99661.59;;;13.41;81.68
69842;BME280;57138;51.326;-0.068;2023-07-13T02:44:50;99661.22;;;13.37;81.83
69842;BME280;57138;51.326;-0.068;2023-07-13T02:47:16;99665.53;;;13.38;81.97
69842;BME280;57138;51.326;-0.068;2023-07-13T02:49:41;99673.97;;;13.42;82.19
69842;BME280;57138;51.326;-0.068;2023-07-13T02:52:07;99663.50;;;13.34;82.80
69842;BME280;57138;51.326;-0.068;2023-07-13T02:54:32;99656.50;;;13.26;82.83
69842;BME280;57138;51.326;-0.068;2023-07-13T02:56:58;99666.81;;;13.36;82.75
69842;BME280;57138;51.326;-0.068;2023-07-13T02:59:24;99670.91;;;13.38;82.96
69842;BME280;57138;51.326;-0.068;2023-07-13T03:01:49;99667.22;;;13.33;82.65
69842;BME280;57138;51.326;-0.068;2023-07-13T03:04:15;99668.09;;;13.26;82.51
69842;BME280;57138;51.326;-0.068;2023-07-13T03:06:45;99672.19;;;13.29;83.20
69842;BME280;57138;51.326;-0.068;2023-07-13T03:09:10;99675.09;;;13.27;82.94
69842;BME280;57138;51.326;-0.068;2023-07-13T03:11:37;99677.19;;;13.25;83.21
69842;BME280;57138;51.326;-0.068;2023-07-13T03:14:03;99671.44;;;13.22;83.35
69842;BME280;57138;51.326;-0.068;2023-07-13T03:16:28;99648.22;;;13.09;83.31
69842;BME280;57138;51.326;-0.068;2023-07-13T03:18:54;99664.03;;;13.17;83.95
69842;BME280;57138;51.326;-0.068;2023-07-13T03:21:19;99687.91;;;13.25;83.24
69842;BME280;57138;51.326;-0.068;2023-07-13T03:23:45;99680.53;;;13.21;83.31
69842;BME280;57138;51.326;-0.068;2023-07-13T03:26:17;99677.63;;;13.22;83.25
69842;BME280;57138;51.326;-0.068;2023-07-13T03:28:43;99685.06;;;13.20;83.25
69842;BME280;57138;51.326;-0.068;2023-07-13T03:31:12;99686.91;;;13.20;83.51
69842;BME280;57138;51.326;-0.068;2023-07-13T03:33:38;99665.78;;;13.05;83.40
69842;BME280;57138;51.326;-0.068;2023-07-13T03:36:05;99685.94;;;13.14;84.14
69842;BME280;57138;51.326;-0.068;2023-07-13T03:38:31;99677.34;;;13.05;83.90
69842;BME280;57138;51.326;-0.068;2023-07-13T03:40:57;99673.28;;;12.96;84.32
69842;BME280;57138;51.326;-0.068;2023-07-13T03:43:22;99673.72;;;12.93;84.35
69842;BME280;57138;51.326;-0.068;2023-07-13T03:45:48;99678.25;;;12.92;84.11
69842;BME280;57138;51.326;-0.068;2023-07-13T03:48:14;99685.50;;;12.92;83.97
69842;BME280;57138;51.326;-0.068;2023-07-13T03:50:39;99701.69;;;13.04;84.41
69842;BME280;57138;51.326;-0.068;2023-07-13T03:53:05;99710.81;;;13.03;84.29
69842;BME280;57138;51.326;-0.068;2023-07-13T03:55:31;99706.47;;;13.02;84.22
69842;BME280;57138;51.326;-0.068;2023-07-13T04:00:51;99670.50;;;12.77;84.61
69842;BME280;57138;51.326;-0.068;2023-07-13T04:03:16;99691.94;;;12.84;84.59
69842;BME280;57138;51.326;-0.068;2023-07-13T04:05:42;99713.13;;;12.92;84.76
69842;BME280;57138;51.326;-0.068;2023-07-13T04:08:08;99683.09;;;12.77;84.95
69842;BME280;57138;51.326;-0.068;2023-07-13T04:10:37;99689.50;;;12.76;84.80
69842;BME280;57138;51.326;-0.068;2023-07-13T04:13:05;99688.53;;;12.70;85.02
69842;BME280;57138;51.326;-0.068;2023-07-13T04:15:31;99723.28;;;12.90;85.16
69842;BME280;57138;51.326;-0.068;2023-07-13T04:17:57;99715.03;;;12.85;84.96
69842;BME280;57138;51.326;-0.068;2023-07-13T04:20:23;99707.63;;;12.81;84.83
69842;BME280;57138;51.326;-0.068;2023-07-13T04:22:49;99721.63;;;12.89;84.96
69842;BME280;57138;51.326;-0.068;2023-07-13T04:25:15;99721.19;;;12.92;84.93
69842;BME280;57138;51.326;-0.068;2023-07-13T04:27:41;99680.47;;;12.70;85.52
69842;BME280;57138;51.326;-0.068;2023-07-13T04:30:07;99717.91;;;12.90;85.23
69842;BME280;57138;51.326;-0.068;2023-07-13T04:32:32;99693.63;;;12.79;85.27
69842;BME280;57138;51.326;-0.068;2023-07-13T04:34:58;99720.75;;;12.95;85.13
69842;BME280;57138;51.326;-0.068;2023-07-13T04:37:25;99704.50;;;12.90;85.04
69842;BME280;57138;51.326;-0.068;2023-07-13T04:39:51;99713.34;;;12.91;85.08
69842;BME280;57138;51.326;-0.068;2023-07-13T04:42:17;99696.09;;;12.80;85.16
69842;BME280;57138;51.326;-0.068;2023-07-13T04:44:50;99729.41;;;12.98;85.50
69842;BME280;57138;51.326;-0.068;2023-07-13T04:47:17;99721.19;;;12.92;85.47
69842;BME280;57138;51.326;-0.068;2023-07-13T04:49:42;99712.97;;;12.87;85.26
69842;BME280;57138;51.326;-0.068;2023-07-13T04:52:08;99744.66;;;13.04;85.79
69842;BME280;57138;51.326;-0.068;2023-07-13T04:54:34;99727.78;;;12.97;85.13
69842;BME280;57138;51.326;-0.068;2023-07-13T04:57:00;99707.41;;;12.89;85.38
69842;BME280;57138;51.326;-0.068;2023-07-13T04:59:26;99734.84;;;13.16;85.84
69842;BME280;57138;51.326;-0.068;2023-07-13T05:01:52;99717.72;;;13.17;86.07
69842;BME280;57138;51.326;-0.068;2023-07-13T05:04:20;99713.94;;;13.25;85.93
69842;BME280;57138;51.326;-0.068;2023-07-13T05:06:45;99708.97;;;13.28;85.72
69842;BME280;57138;51.326;-0.068;2023-07-13T05:09:11;99736.91;;;13.53;85.65
69842;BME280;57138;51.326;-0.068;2023-07-13T05:11:37;99738.63;;;13.65;85.75
69842;BME280;57138;51.326;-0.068;2023-07-13T05:14:03;99715.19;;;13.54;85.62
69842;BME280;57138;51.326;-0.068;2023-07-13T05:16:28;99745.69;;;13.85;85.22
69842;BME280;57138;51.326;-0.068;2023-07-13T05:18:54;99720.09;;;13.82;85.16
69842;BME280;57138;51.326;-0.068;2023-07-13T05:21:19;99731.53;;;13.96;85.37
69842;BME280;57138;51.326;-0.068;2023-07-13T05:23:45;99722.84;;;13.94;84.39
69842;BME280;57138;51.326;-0.068;2023-07-13T05:26:11;99753.19;;;14.20;84.11
69842;BME280;57138;51.326;-0.068;2023-07-13T05:28:37;99735.72;;;14.11;84.07
69842;BME280;57138;51.326;-0.068;2023-07-13T05:31:03;99755.34;;;14.30;83.49
69842;BME280;57138;51.326;-0.068;2023-07-13T05:33:29;99751.00;;;14.29;83.50
69842;BME280;57138;51.326;-0.068;2023-07-13T05:35:55;99773.38;;;14.48;83.50
69842;BME280;57138;51.326;-0.068;2023-07-13T05:38:20;99751.44;;;14.44;82.96
69842;BME280;57138;51.326;-0.068;2023-07-13T05:40:46;99775.22;;;14.66;82.75
69842;BME280;57138;51.326;-0.068;2023-07-13T05:43:12;99740.41;;;14.52;82.49
69842;BME280;57138;51.326;-0.068;2023-07-13T05:45:39;99760.06;;;14.71;81.82
69842;BME280;57138;51.326;-0.068;2023-07-13T05:48:04;99753.13;;;14.64;82.13
69842;BME280;57138;51.326;-0.068;2023-07-13T05:50:30;99760.06;;;14.71;81.31
69842;BME280;57138;51.326;-0.068;2023-07-13T05:52:55;99763.69;;;14.77;81.73
69842;BME280;57138;51.326;-0.068;2023-07-13T05:55:21;99763.88;;;14.94;81.96
69842;BME280;57138;51.326;-0.068;2023-07-13T05:57:47;99774.69;;;15.06;80.92
69842;BME280;57138;51.326;-0.068;2023-07-13T06:00:14;99778.34;;;15.12;80.37
69842;BME280;57138;51.326;-0.068;2023-07-13T06:02:40;99770.47;;;14.98;80.35
69842;BME280;57138;51.326;-0.068;2023-07-13T06:05:05;99771.88;;;15.01;80.46
69842;BME280;57138;51.326;-0.068;2023-07-13T06:07:31;99784.19;;;15.08;79.71
69842;BME280;57138;51.326;-0.068;2023-07-13T06:09:56;99784.78;;;15.10;79.65
69842;BME280;57138;51.326;-0.068;2023-07-13T06:12:25;99786.91;;;15.08;79.66
69842;BME280;57138;51.326;-0.068;2023-07-13T06:14:51;99774.00;;;15.10;79.82
69842;BME280;57138;51.326;-0.068;2023-07-13T06:17:16;99795.50;;;15.41;79.91
69842;BME280;57138;51.326;-0.068;2023-07-13T06:19:42;99785.13;;;15.44;79.89
69842;BME280;57138;51.326;-0.068;2023-07-13T06:22:07;99791.09;;;15.46;78.55
69842;BME280;57138;51.326;-0.068;2023-07-13T06:24:33;99798.72;;;15.50;78.83
69842;BME280;57138;51.326;-0.068;2023-07-13T06:26:58;99804.22;;;15.55;79.31
69842;BME280;57138;51.326;-0.068;2023-07-13T06:29:24;99788.41;;;15.46;79.29
69842;BME280;57138;51.326;-0.068;2023-07-13T06:31:49;99799.91;;;15.54;78.77
69842;BME280;57138;51.326;-0.068;2023-07-13T06:34:15;99796.81;;;15.50;79.13
69842;BME280;57138;51.326;-0.068;2023-07-13T06:36:40;99776.88;;;15.39;78.71
69842;BME280;57138;51.326;-0.068;2023-07-13T06:39:06;99796.25;;;15.48;78.34
69842;BME280;57138;51.326;-0.068;2023-07-13T06:41:32;99815.13;;;15.60;78.31
69842;BME280;57138;51.326;-0.068;2023-07-13T06:43:58;99817.03;;;15.71;78.52
69842;BME280;57138;51.326;-0.068;2023-07-13T06:46:24;99819.06;;;15.88;77.84
69842;BME280;57138;51.326;-0.068;2023-07-13T06:48:50;99813.81;;;15.93;77.87
69842;BME280;57138;51.326;-0.068;2023-07-13T06:51:16;99821.31;;;16.03;77.41
69842;BME280;57138;51.326;-0.068;2023-07-13T06:53:42;99827.03;;;16.06;77.30
69842;BME280;57138;51.326;-0.068;2023-07-13T06:56:09;99828.78;;;16.12;77.18
69842;BME280;57138;51.326;-0.068;2023-07-13T06:58:36;99810.53;;;16.14;77.48
69842;BME280;57138;51.326;-0.068;2023-07-13T07:01:03;99808.03;;;16.25;76.76
69842;BME280;57138;51.326;-0.068;2023-07-13T07:03:29;99822.66;;;16.52;76.91
69842;BME280;57138;51.326;-0.068;2023-07-13T07:06:00;99826.25;;;16.82;76.51
69842;BME280;57138;51.326;-0.068;2023-07-13T07:08:26;99821.66;;;16.82;75.54
69842;BME280;57138;51.326;-0.068;2023-07-13T07:10:52;99837.63;;;16.96;75.30
69842;BME280;57138;51.326;-0.068;2023-07-13T07:13:19;99829.13;;;17.04;75.31
69842;BME280;57138;51.326;-0.068;2023-07-13T07:15:45;99843.50;;;17.21;74.80
69842;BME280;57138;51.326;-0.068;2023-07-13T07:18:10;99837.25;;;17.33;74.29
69842;BME280;57138;51.326;-0.068;2023-07-13T07:20:36;99826.81;;;17.24;73.53
69842;BME280;57138;51.326;-0.068;2023-07-13T07:23:01;99846.25;;;17.38;73.89
69842;BME280;57138;51.326;-0.068;2023-07-13T07:25:27;99823.53;;;17.22;73.86
69842;BME280;57138;51.326;-0.068;2023-07-13T07:27:52;99837.25;;;17.33;73.67
69842;BME280;57138;51.326;-0.068;2023-07-13T07:30:17;99839.88;;;17.45;74.01
69842;BME280;57138;51.326;-0.068;2023-07-13T07:32:43;99845.31;;;17.61;73.47
69842;BME280;57138;51.326;-0.068;2023-07-13T07:35:09;99843.00;;;17.53;73.00
69842;BME280;57138;51.326;-0.068;2023-07-13T07:37:35;99867.97;;;17.60;72.52
69842;BME280;57138;51.326;-0.068;2023-07-13T07:40:00;99866.25;;;17.54;72.91
69842;BME280;57138;51.326;-0.068;2023-07-13T07:42:26;99861.50;;;17.45;72.98
69842;BME280;57138;51.326;-0.068;2023-07-13T07:44:51;99867.47;;;17.47;72.27
69842;BME280;57138;51.326;-0.068;2023-07-13T07:47:17;99872.63;;;17.48;72.89
69842;BME280;57138;51.326;-0.068;2023-07-13T07:49:42;99847.56;;;17.36;72.33
69842;BME280;57138;51.326;-0.068;2023-07-13T07:52:08;99866.38;;;17.31;72.05
69842;BME280;57138;51.326;-0.068;2023-07-13T07:54:35;99873.22;;;17.21;72.64
69842;BME280;57138;51.326;-0.068;2023-07-13T07:57:00;99867.81;;;17.21;72.67
69842;BME280;57138;51.326;-0.068;2023-07-13T07:59:26;99879.94;;;17.19;72.16
69842;BME280;57138;51.326;-0.068;2023-07-13T08:01:52;99891.88;;;17.23;72.61
69842;BME280;57138;51.326;-0.068;2023-07-13T08:04:18;99854.00;;;17.06;73.21
69842;BME280;57138;51.326;-0.068;2023-07-13T08:06:44;99885.19;;;17.25;72.84
69842;BME280;57138;51.326;-0.068;2023-07-13T08:09:10;99883.06;;;17.28;72.58
69842;BME280;57138;51.326;-0.068;2023-07-13T08:11:35;99888.47;;;17.28;72.65
69842;BME280;57138;51.326;-0.068;2023-07-13T08:14:01;99878.63;;;17.21;72.32
69842;BME280;57138;51.326;-0.068;2023-07-13T08:16:26;99876.31;;;17.13;72.64
69842;BME280;57138;51.326;-0.068;2023-07-13T08:18:52;99871.38;;;17.10;73.11
69842;BME280;57138;51.326;-0.068;2023-07-13T08:21:17;99889.63;;;17.32;73.30
69842;BME280;57138;51.326;-0.068;2023-07-13T08:23:45;99891.94;;;17.40;73.43
69842;BME280;57138;51.326;-0.068;2023-07-13T08:26:12;99888.19;;;17.41;73.28
69842;BME280;57138;51.326;-0.068;2023-07-13T08:28:38;99890.81;;;17.53;72.69
69842;BME280;57138;51.326;-0.068;2023-07-13T08:31:05;99887.22;;;17.47;72.12
69842;BME280;57138;51.326;-0.068;2023-07-13T08:33:33;99874.75;;;17.46;72.14
69842;BME280;57138;51.326;-0.068;2023-07-13T08:35:59;99881.16;;;17.57;72.41
69842;BME280;57138;51.326;-0.068;2023-07-13T08:38:25;99875.59;;;17.64;72.18
69842;BME280;57138;51.326;-0.068;2023-07-13T08:40:55;99875.13;;;17.67;70.91
69842;BME280;57138;51.326;-0.068;2023-07-13T08:43:31;99876.28;;;17.71;71.21
69842;BME280;57138;51.326;-0.068;2023-07-13T08:46:36;99895.81;;;17.90;71.30
69842;BME280;57138;51.326;-0.068;2023-07-13T08:49:05;99883.94;;;17.91;71.07
69842;BME280;57138;51.326;-0.068;2023-07-13T08:51:44;99887.72;;;18.07;71.24
69842;BME280;57138;51.326;-0.068;2023-07-13T08:54:15;99886.31;;;18.21;70.96
69842;BME280;57138;51.326;-0.068;2023-07-13T08:56:44;99895.41;;;18.32;71.17
69842;BME280;57138;51.326;-0.068;2023-07-13T08:59:14;99896.78;;;18.52;70.87
69842;BME280;57138;51.326;-0.068;2023-07-13T09:04:46;99890.94;;;18.82;69.25
69842;BME280;57138;51.326;-0.068;2023-07-13T09:07:45;99890.13;;;18.98;68.59
69842;BME280;57138;51.326;-0.068;2023-07-13T09:10:32;99858.13;;;18.95;68.45
69842;BME280;57138;51.326;-0.068;2023-07-13T09:15:51;99871.44;;;19.24;67.07
69842;BME280;57138;51.326;-0.068;2023-07-13T09:20:58;99876.97;;;19.62;66.53
69842;BME280;57138;51.326;-0.068;2023-07-13T09:23:31;99871.81;;;19.87;66.31
69842;BME280;57138;51.326;-0.068;2023-07-13T09:26:04;99858.34;;;19.98;65.60
69842;BME280;57138;51.326;-0.068;2023-07-13T09:28:44;99873.88;;;20.13;64.55
69842;BME280;57138;51.326;-0.068;2023-07-13T09:31:15;99856.06;;;19.89;62.51
69842;BME280;57138;51.326;-0.068;2023-07-13T09:33:44;99879.13;;;19.87;63.89
69842;BME280;57138;51.326;-0.068;2023-07-13T09:38:44;99883.00;;;20.34;63.42
69842;BME280;57138;51.326;-0.068;2023-07-13T09:46:35;99892.59;;;20.46;61.71
69842;BME280;57138;51.326;-0.068;2023-07-13T09:49:01;99871.91;;;20.40;61.12
69842;BME280;57138;51.326;-0.068;2023-07-13T09:51:27;99875.81;;;20.60;60.90
69842;BME280;57138;51.326;-0.068;2023-07-13T09:53:54;99850.78;;;20.47;60.56
69842;BME280;57138;51.326;-0.068;2023-07-13T09:56:24;99874.25;;;20.69;59.99
69842;BME280;57138;51.326;-0.068;2023-07-13T09:58:51;99876.44;;;20.72;60.12
69842;BME280;57138;51.326;-0.068;2023-07-13T10:01:40;99871.59;;;20.79;59.77
69842;BME280;57138;51.326;-0.068;2023-07-13T10:04:13;99860.44;;;20.76;59.78
69842;BME280;57138;51.326;-0.068;2023-07-13T10:06:40;99870.00;;;20.83;60.24
69842;BME280;57138;51.326;-0.068;2023-07-13T10:09:09;99855.56;;;20.78;59.83
69842;BME280;57138;51.326;-0.068;2023-07-13T10:11:36;99879.56;;;20.96;58.44
69842;BME280;57138;51.326;-0.068;2023-07-13T10:14:17;99887.47;;;21.08;58.37
69842;BME280;57138;51.326;-0.068;2023-07-13T10:16:45;99853.75;;;20.99;57.97
69842;BME280;57138;51.326;-0.068;2023-07-13T10:19:24;99886.16;;;21.26;57.38
69842;BME280;57138;51.326;-0.068;2023-07-13T10:24:37;99895.66;;;21.13;56.93
69842;BME280;57138;51.326;-0.068;2023-07-13T10:27:13;99887.69;;;20.91;56.85
69842;BME280;57138;51.326;-0.068;2023-07-13T10:30:09;99890.03;;;20.72;57.13
69842;BME280;57138;51.326;-0.068;2023-07-13T10:32:37;99892.84;;;20.45;57.90
69842;BME280;57138;51.326;-0.068;2023-07-13T10:35:03;99897.28;;;20.19;58.92
69842;BME280;57138;51.326;-0.068;2023-07-13T10:40:15;99895.97;;;19.89;60.83
69842;BME280;57138;51.326;-0.068;2023-07-13T10:42:49;99895.44;;;19.92;60.53
69842;BME280;57138;51.326;-0.068;2023-07-13T10:45:17;99876.97;;;19.89;60.62
69842;BME280;57138;51.326;-0.068;2023-07-13T10:47:44;99892.81;;;20.02;61.34
69842;BME280;57138;51.326;-0.068;2023-07-13T10:50:25;99898.78;;;20.37;60.92
69842;BME280;57138;51.326;-0.068;2023-07-13T10:52:55;99893.19;;;20.54;60.12
69842;BME280;57138;51.326;-0.068;2023-07-13T11:01:18;99896.19;;;21.21;59.40
69842;BME280;57138;51.326;-0.068;2023-07-13T11:11:37;99901.28;;;21.96;55.60
69842;BME280;57138;51.326;-0.068;2023-07-13T11:16:52;99874.59;;;21.93;55.82
69842;BME280;57138;51.326;-0.068;2023-07-13T11:24:58;99869.41;;;21.65;53.78
69842;BME280;57138;51.326;-0.068;2023-07-13T11:30:25;99889.00;;;21.72;54.86
69842;BME280;57138;51.326;-0.068;2023-07-13T11:33:19;99886.53;;;21.66;54.58
69842;BME280;57138;51.326;-0.068;2023-07-13T11:36:13;99884.63;;;21.56;54.76
69842;BME280;57138;51.326;-0.068;2023-07-13T11:38:42;99886.53;;;21.56;55.82
69842;BME280;57138;51.326;-0.068;2023-07-13T11:41:29;99885.47;;;21.62;54.40
69842;BME280;57138;51.326;-0.068;2023-07-13T11:44:06;99876.19;;;21.63;54.56
69842;BME280;57138;51.326;-0.068;2023-07-13T11:46:33;99884.38;;;21.68;54.75
69842;BME280;57138;51.326;-0.068;2023-07-13T11:49:00;99869.16;;;21.62;54.50
69842;BME280;57138;51.326;-0.068;2023-07-13T11:51:34;99877.31;;;21.67;54.17
69842;BME280;57138;51.326;-0.068;2023-07-13T11:54:04;99876.19;;;21.52;54.13
69842;BME280;57138;51.326;-0.068;2023-07-13T11:56:31;99876.13;;;21.37;54.76
69842;BME280;57138;51.326;-0.068;2023-07-13T11:59:04;99886.44;;;21.25;55.52
69842;BME280;57138;51.326;-0.068;2023-07-13T12:01:32;99902.72;;;21.14;55.86
69842;BME280;57138;51.326;-0.068;2023-07-13T12:04:01;99898.91;;;21.05;56.96
69842;BME280;57138;51.326;-0.068;2023-07-13T12:09:03;99877.63;;;20.87;57.92
69842;BME280;57138;51.326;-0.068;2023-07-13T12:11:30;99884.66;;;20.82;58.23
69842;BME280;57138;51.326;-0.068;2023-07-13T12:13:56;99888.44;;;20.81;58.52
69842;BME280;57138;51.326;-0.068;2023-07-13T12:16:33;99881.34;;;20.70;58.62
69842;BME280;57138;51.326;-0.068;2023-07-13T12:19:02;99888.69;;;20.70;58.61
69842;BME280;57138;51.326;-0.068;2023-07-13T12:21:31;99890.00;;;20.67;58.81
69842;BME280;57138;51.326;-0.068;2023-07-13T12:23:57;99885.13;;;20.69;58.76
69842;BME280;57138;51.326;-0.068;2023-07-13T12:26:23;99873.19;;;20.75;58.98
69842;BME280;57138;51.326;-0.068;2023-07-13T12:28:52;99869.47;;;20.87;59.02
69842;BME280;57138;51.326;-0.068;2023-07-13T12:33:56;99857.59;;;21.13;58.18
69842;BME280;57138;51.326;-0.068;2023-07-13T12:36:23;99876.13;;;21.32;57.36
69842;BME280;57138;51.326;-0.068;2023-07-13T12:38:48;99854.63;;;21.25;56.54
69842;BME280;57138;51.326;-0.068;2023-07-13T12:41:14;99869.91;;;21.36;56.40
69842;BME280;57138;51.326;-0.068;2023-07-13T12:43:40;99874.00;;;21.44;56.74
69842;BME280;57138;51.326;-0.068;2023-07-13T12:46:19;99872.13;;;21.60;57.03
69842;BME280;57138;51.326;-0.068;2023-07-13T12:48:57;99869.44;;;21.91;55.56
69842;BME280;57138;51.326;-0.068;2023-07-13T12:51:26;99868.59;;;22.06;55.71
69842;BME280;57138;51.326;-0.068;2023-07-13T12:54:06;99855.00;;;21.96;54.60
69842;BME280;57138;51.326;-0.068;2023-07-13T12:56:32;99848.19;;;21.93;55.14
69842;BME280;57138;51.326;-0.068;2023-07-13T12:59:02;99844.09;;;21.90;54.09
69842;BME280;57138;51.326;-0.068;2023-07-13T13:01:29;99828.34;;;21.93;54.73
69842;BME280;57138;51.326;-0.068;2023-07-13T13:03:55;99857.69;;;22.16;54.54
69842;BME280;57138;51.326;-0.068;2023-07-13T13:06:27;99846.81;;;22.16;53.74
69842;BME280;57138;51.326;-0.068;2023-07-13T13:08:58;99852.25;;;22.16;53.64
69842;BME280;57138;51.326;-0.068;2023-07-13T13:11:26;99857.16;;;21.88;54.29
69842;BME280;57138;51.326;-0.068;2023-07-13T13:13:52;99869.94;;;21.62;55.51
69842;BME280;57138;51.326;-0.068;2023-07-13T13:16:37;99866.38;;;21.41;55.65
69842;BME280;57138;51.326;-0.068;2023-07-13T13:19:17;99869.63;;;21.43;56.96
69842;BME280;57138;51.326;-0.068;2023-07-13T13:21:45;99864.50;;;21.57;56.82
69842;BME280;57138;51.326;-0.068;2023-07-13T13:24:12;99862.34;;;21.85;56.70
69842;BME280;57138;51.326;-0.068;2023-07-13T13:26:38;99850.59;;;22.20;56.44
69842;BME280;57138;51.326;-0.068;2023-07-13T13:29:13;99839.13;;;22.49;55.12
69842;BME280;57138;51.326;-0.068;2023-07-13T13:31:39;99829.28;;;22.64;54.79
69842;BME280;57138;51.326;-0.068;2023-07-13T13:34:08;99835.56;;;22.64;54.43
69842;BME280;57138;51.326;-0.068;2023-07-13T13:36:34;99828.81;;;22.41;54.86
69842;BME280;57138;51.326;-0.068;2023-07-13T13:39:00;99843.53;;;22.35;54.64
69842;BME280;57138;51.326;-0.068;2023-07-13T13:41:27;99831.56;;;22.10;55.23
69842;BME280;57138;51.326;-0.068;2023-07-13T13:43:53;99823.16;;;21.86;56.28
69842;BME280;57138;51.326;-0.068;2023-07-13T13:46:22;99840.84;;;21.78;55.84
69842;BME280;57138;51.326;-0.068;2023-07-13T13:48:50;99832.97;;;21.66;57.32
69842;BME280;57138;51.326;-0.068;2023-07-13T13:51:21;99832.94;;;21.71;57.76